Volcan De Tamadaba — EAOG — position and weather

sailwx.info

Track history (hours):
 
Tides and Currents Weather Stations Pressure Air Temp Water Temp Dewpoint Dewpoint Depression Visibility Wind Speed Wind Dir Waves Ship Positions

Volcan De Tamadaba

Last reported at 2018-Feb-20 08:00 UTC. Time now 2018-Feb-20 08:06 UTC.
Position N 28°15' W 015°34'.

Length 155 m; draft 5.2 m.

Type: Passenger vessel. MMSI: 224957000.

Date/timePositionNaut miles runAvg speedWind from/ knotsBaromVisibWave heightAir tempDewpointWater temp
2018-Feb-20 08:00N 28°15' W 015°34'1020.7
2018-Feb-20 07:30N 28°12' W 015°23'2 4.3
2018-Feb-20 07:00N 28°10' W 015°24'0 0.0
2018-Feb-20 06:30N 28°10' W 015°24'0 0.0
2018-Feb-20 06:00N 28°10' W 015°24'0 0.0
2018-Feb-20 05:29N 28°10' W 015°24'0 0.0
2018-Feb-20 05:00N 28°10' W 015°24'0 0.0
2018-Feb-20 04:30N 28°10' W 015°24'0 0.0
2018-Feb-20 04:00N 28°10' W 015°24'0 0.0
2018-Feb-20 03:30N 28°10' W 015°24'0 0.0
2018-Feb-20 03:00N 28°10' W 015°24'0 0.0
2018-Feb-20 02:30N 28°10' W 015°24'0 0.0
2018-Feb-20 02:00N 28°10' W 015°24'0 0.0
2018-Feb-20 01:30N 28°10' W 015°24'0 0.0
2018-Feb-20 01:00N 28°10' W 015°24'0 0.0
2018-Feb-20 00:29N 28°10' W 015°24'0 0.0
2018-Feb-19 23:59N 28°10' W 015°24'0 0.0
2018-Feb-19 23:30N 28°10' W 015°24'0 0.0
2018-Feb-19 22:59N 28°10' W 015°24'0 0.1
2018-Feb-19 22:30N 28°10' W 015°24'611.2
2018-Feb-19 22:01N 28°13' W 015°29'1121.1
2018-Feb-19 21:31N 28°17' W 015°40'1121.1
2018-Feb-19 21:00N 28°21' W 015°51'1 0.3
2018-Feb-19 17:28N 28°21' W 015°53'1020.7
2018-Feb-19 16:59N 28°18' W 015°42'1021.0
2018-Feb-19 16:30N 28°14' W 015°31'816.4
2018-Feb-19 16:00N 28°09' W 015°24'1 1.2
2018-Feb-19 15:30N 28°10' W 015°24'0 0.0
2018-Feb-19 15:00N 28°10' W 015°24'0 0.0
2018-Feb-19 14:30N 28°10' W 015°24'0 0.0
2018-Feb-19 14:00N 28°10' W 015°24'0 0.0
2018-Feb-19 13:30N 28°10' W 015°24'0 0.0
2018-Feb-19 13:00N 28°10' W 015°24'0 0.0
2018-Feb-19 12:29N 28°10' W 015°24'0 0.0
2018-Feb-19 12:00N 28°10' W 015°24'0 0.0
2018-Feb-19 11:30N 28°10' W 015°24'0 0.0
2018-Feb-19 11:00N 28°10' W 015°24'0 0.0
2018-Feb-19 10:30N 28°10' W 015°24'0 0.8
2018-Feb-19 10:00N 28°09' W 015°24'816.5
2018-Feb-19 09:30N 28°14' W 015°32'1121.1
2018-Feb-19 09:00N 28°18' W 015°43'1021.3
2018-Feb-19 08:30N 28°22' W 015°54'1121.1
2018-Feb-19 08:00N 28°26' W 016°05'917.7
2018-Feb-19 07:31N 28°28' W 016°15'0 0.3
2018-Feb-19 07:01N 28°28' W 016°15'0 0.0
2018-Feb-19 06:31N 28°28' W 016°15'0 0.0
2018-Feb-19 06:01N 28°28' W 016°15'0 0.0
2018-Feb-19 05:30N 28°28' W 016°15'0 0.0
2018-Feb-19 05:01N 28°28' W 016°15'0 0.0
2018-Feb-19 04:31N 28°28' W 016°15'0 0.0
2018-Feb-19 04:01N 28°28' W 016°15'0 0.0
2018-Feb-19 03:30N 28°28' W 016°15'0 0.0
2018-Feb-19 03:01N 28°28' W 016°15'0 0.0
2018-Feb-19 02:31N 28°28' W 016°15'0 0.0
2018-Feb-19 02:00N 28°28' W 016°15'0 0.0
2018-Feb-19 01:31N 28°28' W 016°15'0 0.0
2018-Feb-19 01:00N 28°28' W 016°15'0 0.0
2018-Feb-19 00:29N 28°28' W 016°15'0 0.0
2018-Feb-19 00:01N 28°28' W 016°15'0 0.0
2018-Feb-18 23:30N 28°28' W 016°15'0 0.0
2018-Feb-18 23:00N 28°28' W 016°15'0 0.0
2018-Feb-18 22:30N 28°28' W 016°15'1 1.2
2018-Feb-18 22:00N 28°29' W 016°14'1020.0
2018-Feb-18 21:30N 28°25' W 016°04'1621.3
2018-Feb-18 20:46N 28°19' W 015°47'621.1
2018-Feb-18 20:30N 28°17' W 015°41'1021.0
2018-Feb-18 20:01N 28°14' W 015°30'713.9
2018-Feb-18 19:30N 28°09' W 015°24'0 0.7
2018-Feb-18 19:00N 28°10' W 015°24'0 0.0
2018-Feb-18 18:30N 28°10' W 015°24'0 0.6
2018-Feb-18 18:00N 28°09' W 015°24'815.8
2018-Feb-18 17:30N 28°14' W 015°31'1121.3
2018-Feb-18 17:00N 28°18' W 015°43'1121.2
2018-Feb-18 16:30N 28°22' W 015°54'1121.5
2018-Feb-18 16:00N 28°26' W 016°05'917.4
2018-Feb-18 15:30N 28°28' W 016°15'0 0.2
2018-Feb-18 15:00N 28°28' W 016°15'0 0.0
2018-Feb-18 14:31N 28°28' W 016°15'0 0.0
2018-Feb-18 14:00N 28°28' W 016°15'0 0.0
2018-Feb-18 13:30N 28°28' W 016°15'0 0.0
2018-Feb-18 13:00N 28°28' W 016°15'0 0.0
2018-Feb-18 12:29N 28°28' W 016°15'0 0.0
2018-Feb-18 12:01N 28°28' W 016°15'0 0.0
2018-Feb-18 11:30N 28°28' W 016°15'0 0.0
2018-Feb-18 11:00N 28°28' W 016°15'1 1.1
2018-Feb-18 10:31N 28°29' W 016°14'1019.7
2018-Feb-18 10:00N 28°26' W 016°04'1821.3
2018-Feb-18 09:11N 28°19' W 015°45'421.2
2018-Feb-18 09:00N 28°17' W 015°41'1121.1
2018-Feb-18 08:30N 28°14' W 015°30'714.2
2018-Feb-18 08:00N 28°09' W 015°24'0 0.8
2018-Feb-18 07:30N 28°10' W 015°24'0 0.0
2018-Feb-18 07:01N 28°10' W 015°24'0 0.0
2018-Feb-18 06:29N 28°10' W 015°24'0 0.0
2018-Feb-18 06:00N 28°10' W 015°24'0 0.0
2018-Feb-18 05:30N 28°10' W 015°24'0 0.0
2018-Feb-18 05:00N 28°10' W 015°24'0 0.0
2018-Feb-18 04:30N 28°10' W 015°24'0 0.0
2018-Feb-18 04:00N 28°10' W 015°24'0 0.0
2018-Feb-18 03:30N 28°10' W 015°24'0 0.0
2018-Feb-18 03:00N 28°10' W 015°24'0 0.0
2018-Feb-18 02:30N 28°10' W 015°24'0 0.0
2018-Feb-18 02:00N 28°10' W 015°24'0 0.0
2018-Feb-18 01:30N 28°10' W 015°24'0 0.0
2018-Feb-18 01:00N 28°10' W 015°24'0 0.0
2018-Feb-18 00:30N 28°10' W 015°24'0 0.0
2018-Feb-18 00:00N 28°10' W 015°24'0 0.0
2018-Feb-17 23:31N 28°10' W 015°24'0 0.0
2018-Feb-17 23:00N 28°10' W 015°24'0 0.0
2018-Feb-17 22:31N 28°10' W 015°24'0 0.0
2018-Feb-17 22:01N 28°10' W 015°24'0 0.0
2018-Feb-17 21:30N 28°10' W 015°24'0 0.0
2018-Feb-17 20:59N 28°10' W 015°24'0 0.0
2018-Feb-17 20:31N 28°10' W 015°24'0 0.0
2018-Feb-17 20:01N 28°10' W 015°24'0 0.0
2018-Feb-17 19:31N 28°10' W 015°24'0 0.0
2018-Feb-17 19:01N 28°10' W 015°24'0 0.0
2018-Feb-17 18:30N 28°10' W 015°24'0 0.0
2018-Feb-17 18:01N 28°10' W 015°24'0 0.0
2018-Feb-17 17:31N 28°10' W 015°24'0 0.0
2018-Feb-17 17:00N 28°10' W 015°24'0 0.0
2018-Feb-17 16:30N 28°10' W 015°24'611.2
2018-Feb-17 16:00N 28°11' W 015°18'1121.4
2018-Feb-17 15:30N 28°17' W 015°07'1121.2
2018-Feb-17 15:00N 28°21' W 014°57'1121.5
2018-Feb-17 14:30N 28°26' W 014°46'6621.3
2018-Feb-17 11:23N 28°54' W 013°37'616.8
2018-Feb-17 11:01N 28°58' W 013°32'0 0.0
2018-Feb-17 10:30N 28°58' W 013°32'0 0.0
2018-Feb-17 10:00N 28°58' W 013°32'0 0.0
2018-Feb-17 09:30N 28°58' W 013°32'0 0.0
2018-Feb-17 09:01N 28°58' W 013°32'0 0.0
2018-Feb-17 08:31N 28°58' W 013°32'0 0.0
2018-Feb-17 07:59N 28°58' W 013°32'0 0.0
2018-Feb-17 07:30N 28°58' W 013°32'0 0.0
2018-Feb-17 07:00N 28°58' W 013°32'0 0.0
2018-Feb-17 06:31N 28°58' W 013°32'3 5.8
2018-Feb-17 06:00N 28°56' W 013°34'1417.7
2018-Feb-17 05:12N 28°49' W 013°48'317.8
2018-Feb-17 05:00N 28°48' W 013°52'1218.1
2018-Feb-17 04:21N 28°44' W 014°05'5417.8
2018-Feb-17 01:19N 28°20' W 014°60'618.0
2018-Feb-17 00:59N 28°18' W 015°06'817.7
2018-Feb-17 00:30N 28°14' W 015°14'918.5
2018-Feb-17 00:00N 28°09' W 015°23'1 1.6
2018-Feb-16 23:31N 28°10' W 015°24'0 0.0
2018-Feb-16 23:00N 28°10' W 015°24'0 0.0
2018-Feb-16 22:31N 28°10' W 015°24'0 0.0
2018-Feb-16 21:59N 28°10' W 015°24'0 0.0
2018-Feb-16 21:30N 28°10' W 015°24'0 0.0
2018-Feb-16 21:00N 28°10' W 015°24'0 0.0
2018-Feb-16 20:30N 28°10' W 015°24'0 0.0
2018-Feb-16 20:00N 28°10' W 015°24'0 0.0
2018-Feb-16 19:30N 28°10' W 015°24'0 0.9
2018-Feb-16 19:01N 28°09' W 015°24'916.7
2018-Feb-16 18:30N 28°15' W 015°32'1121.3
2018-Feb-16 18:00N 28°18' W 015°43'1121.0
2018-Feb-16 17:30N 28°22' W 015°54'1021.4
2018-Feb-16 17:00N 28°26' W 016°05'917.3
2018-Feb-16 16:30N 28°28' W 016°15'0 0.0
2018-Feb-16 16:00N 28°28' W 016°15'0 0.0
2018-Feb-16 15:30N 28°28' W 016°15'0 0.0
2018-Feb-16 15:00N 28°28' W 016°15'0 0.0
2018-Feb-16 14:30N 28°28' W 016°15'0 0.0
2018-Feb-16 14:00N 28°28' W 016°15'0 0.0
2018-Feb-16 13:29N 28°28' W 016°15'0 0.0
2018-Feb-16 13:00N 28°28' W 016°15'0 0.0
2018-Feb-16 12:30N 28°28' W 016°15'0 0.0
2018-Feb-16 12:00N 28°28' W 016°15'0 0.0
2018-Feb-16 11:30N 28°28' W 016°15'0 0.0
2018-Feb-16 11:00N 28°28' W 016°15'0 0.0
2018-Feb-16 10:30N 28°28' W 016°15'0 0.0
2018-Feb-16 10:00N 28°28' W 016°15'712.5
2018-Feb-16 09:29N 28°27' W 016°07'1121.8
2018-Feb-16 09:00N 28°23' W 015°56'1121.5
2018-Feb-16 08:30N 28°19' W 015°45'1121.3
2018-Feb-16 08:00N 28°15' W 015°33'1020.7
2018-Feb-16 07:30N 28°11' W 015°23'2 3.2
2018-Feb-16 07:00N 28°10' W 015°24'0 0.0
2018-Feb-16 06:31N 28°10' W 015°24'0 0.0
2018-Feb-16 06:00N 28°10' W 015°24'0 0.0
2018-Feb-16 05:30N 28°10' W 015°24'0 0.0
2018-Feb-16 05:00N 28°10' W 015°24'0 0.0
2018-Feb-16 04:30N 28°10' W 015°24'0 0.0
2018-Feb-16 03:59N 28°10' W 015°24'0 0.0
2018-Feb-16 03:30N 28°10' W 015°24'0 0.0
2018-Feb-16 03:00N 28°10' W 015°24'0 0.0
2018-Feb-16 02:30N 28°10' W 015°24'0 0.0
2018-Feb-16 02:00N 28°10' W 015°24'0 0.0
2018-Feb-16 01:30N 28°10' W 015°24'0 0.0
2018-Feb-16 01:00N 28°10' W 015°24'0 0.0
2018-Feb-16 00:30N 28°10' W 015°24'0 0.0
2018-Feb-16 00:00N 28°10' W 015°24'0 0.0
2018-Feb-15 23:30N 28°10' W 015°24'0 0.0
2018-Feb-15 23:00N 28°10' W 015°24'3 6.2
2018-Feb-15 22:30N 28°12' W 015°25'1121.5
2018-Feb-15 22:00N 28°16' W 015°37'2321.4
2018-Feb-15 20:55N 28°25' W 016°02'921.6
2018-Feb-15 20:30N 28°27' W 016°11'3 6.5
2018-Feb-15 20:00N 28°28' W 016°15'0 0.0
2018-Feb-15 19:30N 28°28' W 016°15'0 0.4
2018-Feb-15 19:00N 28°28' W 016°15'917.5
2018-Feb-15 18:30N 28°26' W 016°05'1222.0
2018-Feb-15 17:58N 28°22' W 015°52'1021.8
2018-Feb-15 17:30N 28°18' W 015°42'1121.5
2018-Feb-15 17:00N 28°14' W 015°31'815.1
2018-Feb-15 16:30N 28°09' W 015°24'0 0.8
2018-Feb-15 16:00N 28°10' W 015°24'0 0.0
2018-Feb-15 15:30N 28°10' W 015°24'0 0.0
2018-Feb-15 15:00N 28°10' W 015°24'0 0.0
2018-Feb-15 14:30N 28°10' W 015°24'4 8.3
2018-Feb-15 13:59N 28°11' W 015°19'1022.0
2018-Feb-15 13:30N 28°16' W 015°09'1121.9
2018-Feb-15 13:00N 28°21' W 014°58'1121.8
2018-Feb-15 12:30N 28°26' W 014°47'1122.0
2018-Feb-15 12:00N 28°31' W 014°36'1122.1
2018-Feb-15 11:30N 28°36' W 014°24'1821.8
2018-Feb-15 10:40N 28°44' W 014°06'421.7
2018-Feb-15 10:30N 28°45' W 014°02'2422.2
2018-Feb-15 09:26N 28°54' W 013°37'613.8
2018-Feb-15 09:00N 28°58' W 013°32'0 0.0
2018-Feb-15 08:30N 28°58' W 013°32'0 0.0
2018-Feb-15 08:00N 28°58' W 013°32'0 0.0
2018-Feb-15 07:30N 28°58' W 013°32'0 0.0
2018-Feb-15 07:00N 28°58' W 013°32'0 0.0
2018-Feb-15 06:30N 28°58' W 013°32'3 6.7
2018-Feb-15 06:00N 28°56' W 013°34'2317.3
2018-Feb-15 04:40N 28°47' W 013°59'317.6
2018-Feb-15 04:28N 28°46' W 014°02'1817.5
2018-Feb-15 03:26N 28°38' W 014°21'2117.5
2018-Feb-15 02:16N 28°28' W 014°42'517.7
2018-Feb-15 02:00N 28°26' W 014°46'917.8
2018-Feb-15 01:31N 28°22' W 014°55'917.8
2018-Feb-15 01:00N 28°18' W 015°04'917.8
2018-Feb-15 00:31N 28°14' W 015°13'918.2
2018-Feb-15 00:01N 28°10' W 015°22'2 3.2
2018-Feb-14 23:30N 28°10' W 015°24'0 0.0
2018-Feb-14 23:00N 28°10' W 015°24'0 0.0
2018-Feb-14 22:30N 28°10' W 015°24'0 0.0
2018-Feb-14 21:59N 28°10' W 015°24'0 0.0
2018-Feb-14 21:27N 28°10' W 015°24'0 0.0
2018-Feb-14 21:00N 28°10' W 015°24'0 0.0
2018-Feb-14 20:30N 28°10' W 015°24'0 0.0
2018-Feb-14 20:00N 28°10' W 015°24'0 0.0
2018-Feb-14 19:30N 28°10' W 015°24'0 0.0
2018-Feb-14 19:00N 28°10' W 015°24'1 1.2
2018-Feb-14 18:30N 28°09' W 015°24'918.5
2018-Feb-14 18:01N 28°15' W 015°32'1121.3
2018-Feb-14 17:30N 28°18' W 015°44'1821.2
2018-Feb-14 16:38N 28°25' W 016°03'321.3
2018-Feb-14 16:30N 28°26' W 016°06'815.5
2018-Feb-14 16:00N 28°28' W 016°15'0 0.0
2018-Feb-14 15:30N 28°28' W 016°15'0 0.0
2018-Feb-14 15:00N 28°28' W 016°15'0 0.0
2018-Feb-14 14:30N 28°28' W 016°15'0 0.0
2018-Feb-14 14:00N 28°28' W 016°15'0 0.0
2018-Feb-14 13:30N 28°28' W 016°15'0 0.0
2018-Feb-14 13:00N 28°28' W 016°15'0 0.0
2018-Feb-14 12:30N 28°28' W 016°15'0 0.0
2018-Feb-14 11:56N 28°28' W 016°15'0 0.0
2018-Feb-14 11:30N 28°28' W 016°15'0 0.0
2018-Feb-14 10:59N 28°28' W 016°15'0 0.0
2018-Feb-14 10:30N 28°28' W 016°15'0 0.0
2018-Feb-14 10:00N 28°28' W 016°15'5 9.3
2018-Feb-14 09:30N 28°27' W 016°10'1122.0
2018-Feb-14 09:00N 28°23' W 015°58'1121.6
2018-Feb-14 08:29N 28°20' W 015°46'1021.4
2018-Feb-14 08:00N 28°16' W 015°35'1121.3
2018-Feb-14 07:30N 28°12' W 015°24'2 4.8
2018-Feb-14 07:00N 28°10' W 015°24'0 0.0
2018-Feb-14 06:30N 28°10' W 015°24'0 0.0
2018-Feb-14 05:59N 28°10' W 015°24'0 0.0
2018-Feb-14 05:30N 28°10' W 015°24'0 0.0
2018-Feb-14 05:00N 28°10' W 015°24'0 0.0
2018-Feb-14 04:30N 28°10' W 015°24'0 0.0
2018-Feb-14 04:00N 28°10' W 015°24'0 0.0
2018-Feb-14 03:30N 28°10' W 015°24'0 0.0
2018-Feb-14 03:00N 28°10' W 015°24'0 0.0
2018-Feb-14 02:30N 28°10' W 015°24'0 0.0
2018-Feb-14 01:58N 28°10' W 015°24'0 0.0
2018-Feb-14 01:30N 28°10' W 015°24'0 0.0
2018-Feb-14 01:00N 28°10' W 015°24'0 0.0
2018-Feb-14 00:30N 28°10' W 015°24'0 0.0
2018-Feb-13 23:59N 28°10' W 015°24'0 0.0
2018-Feb-13 23:30N 28°10' W 015°24'0 0.0
2018-Feb-13 23:00N 28°10' W 015°24'0 0.0
2018-Feb-13 22:30N 28°10' W 015°24'4 7.0
2018-Feb-13 22:00N 28°13' W 015°26'1222.1
2018-Feb-13 21:27N 28°17' W 015°39'1221.7
2018-Feb-13 20:55N 28°21' W 015°51'921.7
2018-Feb-13 20:29N 28°24' W 016°01'1121.7
2018-Feb-13 20:00N 28°28' W 016°12'2 4.1
2018-Feb-13 19:30N 28°28' W 016°15'0 0.0
2018-Feb-13 19:00N 28°28' W 016°15'0 0.0
2018-Feb-13 18:30N 28°28' W 016°15'815.2
2018-Feb-13 18:00N 28°26' W 016°06'1221.9
2018-Feb-13 17:27N 28°22' W 015°53'1021.5
2018-Feb-13 17:00N 28°19' W 015°43'1121.6
2018-Feb-13 16:30N 28°15' W 015°32'918.5
2018-Feb-13 16:00N 28°09' W 015°24'1 1.1
2018-Feb-13 15:31N 28°10' W 015°24'0 0.0
2018-Feb-13 15:01N 28°10' W 015°24'0 0.0
2018-Feb-13 14:30N 28°10' W 015°24'0 0.0
2018-Feb-13 14:00N 28°10' W 015°24'0 0.0
2018-Feb-13 13:30N 28°10' W 015°24'0 0.0
2018-Feb-13 12:58N 28°10' W 015°24'0 0.0
2018-Feb-13 12:30N 28°10' W 015°24'0 0.0
2018-Feb-13 12:00N 28°10' W 015°24'0 0.0
2018-Feb-13 11:30N 28°10' W 015°24'0 0.0
2018-Feb-13 11:00N 28°10' W 015°24'0 0.0
2018-Feb-13 10:30N 28°10' W 015°24'1 1.0
2018-Feb-13 10:00N 28°09' W 015°24'917.8
2018-Feb-13 09:30N 28°15' W 015°32'1121.9
2018-Feb-13 09:00N 28°18' W 015°44'1121.7
2018-Feb-13 08:30N 28°22' W 015°56'1121.6
2018-Feb-13 08:01N 28°26' W 016°07'714.8
2018-Feb-13 07:30N 28°28' W 016°15'0 0.0
2018-Feb-13 07:00N 28°28' W 016°15'0 0.0
2018-Feb-13 06:30N 28°28' W 016°15'0 0.0
2018-Feb-13 06:00N 28°28' W 016°15'0 0.0
2018-Feb-13 05:30N 28°28' W 016°15'0 0.0
2018-Feb-13 05:00N 28°28' W 016°15'0 0.0
2018-Feb-13 04:30N 28°28' W 016°15'0 0.0
2018-Feb-13 04:00N 28°28' W 016°15'0 0.0
2018-Feb-13 03:30N 28°28' W 016°15'0 0.0
2018-Feb-13 03:00N 28°28' W 016°15'0 0.0
2018-Feb-13 02:30N 28°28' W 016°15'0 0.0
2018-Feb-13 02:00N 28°28' W 016°15'0 0.0
2018-Feb-13 01:30N 28°28' W 016°15'0 0.0
2018-Feb-13 01:00N 28°28' W 016°15'0 0.0
2018-Feb-13 00:30N 28°28' W 016°15'0 0.0
2018-Feb-13 00:00N 28°28' W 016°15'0 0.0
2018-Feb-12 23:30N 28°28' W 016°15'0 0.0
2018-Feb-12 23:00N 28°28' W 016°15'1 1.2
2018-Feb-12 22:30N 28°29' W 016°14'1019.7
2018-Feb-12 22:00N 28°25' W 016°04'1421.4
2018-Feb-12 21:21N 28°20' W 015°49'721.3
2018-Feb-12 21:00N 28°18' W 015°41'1121.2
2018-Feb-12 20:30N 28°14' W 015°30'714.0
2018-Feb-12 20:00N 28°09' W 015°24'0 0.6
2018-Feb-12 19:30N 28°10' W 015°24'0 0.0
2018-Feb-12 19:00N 28°10' W 015°24'0 0.0
2018-Feb-12 18:30N 28°10' W 015°24'0 0.0
2018-Feb-12 18:00N 28°10' W 015°24'0 0.0
2018-Feb-12 17:30N 28°10' W 015°24'0 0.0
2018-Feb-12 17:00N 28°10' W 015°24'1 1.1
2018-Feb-12 16:30N 28°09' W 015°24'917.2
2018-Feb-12 16:00N 28°15' W 015°31'1121.5
2018-Feb-12 15:30N 28°18' W 015°43'2021.4
2018-Feb-12 14:34N 28°25' W 016°04'221.7
2018-Feb-12 14:27N 28°26' W 016°07'715.9
2018-Feb-12 14:00N 28°28' W 016°15'0 0.0
2018-Feb-12 13:30N 28°28' W 016°15'0 0.0
2018-Feb-12 13:00N 28°28' W 016°15'0 0.0
2018-Feb-12 12:30N 28°28' W 016°15'0 0.0
2018-Feb-12 12:00N 28°28' W 016°15'0 0.0
2018-Feb-12 11:30N 28°28' W 016°15'0 0.0
2018-Feb-12 11:00N 28°28' W 016°15'0 0.0
2018-Feb-12 10:30N 28°28' W 016°15'0 0.0
2018-Feb-12 10:00N 28°28' W 016°15'713.9
2018-Feb-12 09:30N 28°27' W 016°07'1221.5
2018-Feb-12 08:56N 28°22' W 015°54'921.5
2018-Feb-12 08:30N 28°19' W 015°44'1121.3
2018-Feb-12 08:00N 28°16' W 015°33'1020.0
2018-Feb-12 07:30N 28°11' W 015°23'1 2.6
2018-Feb-12 07:00N 28°10' W 015°24'0 0.0
2018-Feb-12 06:30N 28°10' W 015°24'0 0.0
2018-Feb-12 06:00N 28°10' W 015°24'0 0.0
2018-Feb-12 05:30N 28°10' W 015°24'0 0.0
2018-Feb-12 05:00N 28°10' W 015°24'0 0.0
2018-Feb-12 04:30N 28°10' W 015°24'0 0.0
2018-Feb-12 04:00N 28°10' W 015°24'0 0.0
2018-Feb-12 03:29N 28°10' W 015°24'0 0.0
2018-Feb-12 03:00N 28°10' W 015°24'0 0.0
2018-Feb-12 02:30N 28°10' W 015°24'0 0.0
2018-Feb-12 02:00N 28°10' W 015°24'0 0.0
2018-Feb-12 01:30N 28°10' W 015°24'0 0.0
2018-Feb-12 01:00N 28°10' W 015°24'0 0.0
2018-Feb-12 00:30N 28°10' W 015°24'0 0.0
2018-Feb-12 00:00N 28°10' W 015°24'0 0.0
2018-Feb-11 23:30N 28°10' W 015°24'0 0.0
2018-Feb-11 23:00N 28°10' W 015°24'0 0.0
2018-Feb-11 22:30N 28°10' W 015°24'1 1.2
2018-Feb-11 22:00N 28°09' W 015°24'917.3
2018-Feb-11 21:30N 28°14' W 015°32'1121.3
2018-Feb-11 20:59N 28°18' W 015°43'1321.2
2018-Feb-11 20:23N 28°23' W 015°57'821.3
2018-Feb-11 20:00N 28°26' W 016°06'816.9
2018-Feb-11 19:30N 28°28' W 016°15'0 0.1
2018-Feb-11 19:00N 28°28' W 016°15'0 0.0
2018-Feb-11 18:31N 28°28' W 016°15'1 1.9
2018-Feb-11 18:00N 28°29' W 016°14'1020.1
2018-Feb-11 17:30N 28°25' W 016°03'1421.2
2018-Feb-11 16:51N 28°20' W 015°48'720.8
2018-Feb-11 16:30N 28°17' W 015°41'1020.9
2018-Feb-11 16:00N 28°14' W 015°30'713.8
2018-Feb-11 15:31N 28°09' W 015°24'0 0.9
2018-Feb-11 15:00N 28°10' W 015°24'0 0.0
2018-Feb-11 14:30N 28°10' W 015°24'0 0.0
2018-Feb-11 14:00N 28°10' W 015°24'0 0.0
2018-Feb-11 13:30N 28°10' W 015°24'0 0.0
2018-Feb-11 13:00N 28°10' W 015°24'0 0.0
2018-Feb-11 12:30N 28°10' W 015°24'0 0.0
2018-Feb-11 11:59N 28°10' W 015°24'0 0.0
2018-Feb-11 11:30N 28°10' W 015°24'0 0.0
2018-Feb-11 11:00N 28°10' W 015°24'0 0.0
2018-Feb-11 10:30N 28°10' W 015°24'0 0.0
2018-Feb-11 10:00N 28°10' W 015°24'0 0.0
2018-Feb-11 09:30N 28°10' W 015°24'0 0.0
2018-Feb-11 09:00N 28°10' W 015°24'0 0.0
2018-Feb-11 08:26N 28°10' W 015°24'0 0.0
2018-Feb-11 08:00N 28°10' W 015°24'0 0.0
2018-Feb-11 07:30N 28°10' W 015°24'0 0.0
2018-Feb-11 07:00N 28°10' W 015°24'0 0.0
2018-Feb-11 06:30N 28°10' W 015°24'0 0.0
2018-Feb-11 06:00N 28°10' W 015°24'0 0.0
2018-Feb-11 05:30N 28°10' W 015°24'0 0.0
2018-Feb-11 05:00N 28°10' W 015°24'0 0.0
2018-Feb-11 04:30N 28°10' W 015°24'0 0.0
2018-Feb-11 04:00N 28°10' W 015°24'0 0.0
2018-Feb-11 03:30N 28°10' W 015°24'0 0.0
2018-Feb-11 03:00N 28°10' W 015°24'0 0.0
2018-Feb-11 02:30N 28°10' W 015°24'0 0.0
2018-Feb-11 02:00N 28°10' W 015°24'0 0.0
2018-Feb-11 01:29N 28°10' W 015°24'0 0.0
2018-Feb-11 01:00N 28°10' W 015°24'0 0.0
2018-Feb-11 00:30N 28°10' W 015°24'0 0.0
2018-Feb-11 00:00N 28°10' W 015°24'0 0.0
2018-Feb-10 23:29N 28°10' W 015°24'0 0.0
2018-Feb-10 23:00N 28°10' W 015°24'0 0.7
2018-Feb-10 22:30N 28°09' W 015°24'815.1
2018-Feb-10 22:01N 28°14' W 015°31'3221.2
2018-Feb-10 20:29N 28°26' W 016°05'918.3
2018-Feb-10 20:00N 28°28' W 016°15'0 0.5
2018-Feb-10 19:30N 28°28' W 016°15'0 0.0
2018-Feb-10 19:00N 28°28' W 016°15'0 0.0
2018-Feb-10 18:30N 28°28' W 016°15'0 0.0
2018-Feb-10 18:00N 28°28' W 016°15'0 0.0
2018-Feb-10 17:30N 28°28' W 016°15'0 0.0
2018-Feb-10 17:00N 28°28' W 016°15'0 0.0
2018-Feb-10 16:30N 28°28' W 016°15'0 0.0
2018-Feb-10 16:00N 28°28' W 016°15'0 0.0
2018-Feb-10 15:30N 28°28' W 016°15'0 0.0
2018-Feb-10 15:00N 28°28' W 016°15'0 0.0
2018-Feb-10 14:30N 28°28' W 016°15'0 0.0
2018-Feb-10 14:00N 28°28' W 016°15'0 0.0
2018-Feb-10 13:30N 28°28' W 016°15'0 0.0
2018-Feb-10 13:00N 28°28' W 016°15'0 0.0
2018-Feb-10 12:30N 28°28' W 016°15'0 0.0
2018-Feb-10 12:00N 28°28' W 016°15'0 0.0
2018-Feb-10 11:30N 28°28' W 016°15'0 0.0
2018-Feb-10 11:00N 28°28' W 016°15'1 2.7
2018-Feb-10 10:30N 28°29' W 016°13'3621.0
2018-Feb-10 08:48N 28°16' W 015°35'620.8
2018-Feb-10 08:31N 28°14' W 015°29'  
Track history (hours):
 
Tides and Currents Weather Stations Pressure Air Temp Water Temp Dewpoint Dewpoint Depression Visibility Wind Speed Wind Dir Waves Ship Positions

Volcan De Tamadaba

Last reported at 2018-Feb-20 08:00 UTC. Time now 2018-Feb-20 08:06 UTC.
Position N 28°15' W 015°34'.

Length 155 m; draft 5.2 m.

Type: Passenger vessel. MMSI: 224957000.

Date/timePositionNaut miles runAvg speedWind from/ knotsBaromVisibWave heightAir tempDewpointWater temp
2018-Feb-20 08:00N 28°15' W 015°34'1020.7
2018-Feb-20 07:30N 28°12' W 015°23'2 4.3
2018-Feb-20 07:00N 28°10' W 015°24'0 0.0
2018-Feb-20 06:30N 28°10' W 015°24'0 0.0
2018-Feb-20 06:00N 28°10' W 015°24'0 0.0
2018-Feb-20 05:29N 28°10' W 015°24'0 0.0
2018-Feb-20 05:00N 28°10' W 015°24'0 0.0
2018-Feb-20 04:30N 28°10' W 015°24'0 0.0
2018-Feb-20 04:00N 28°10' W 015°24'0 0.0
2018-Feb-20 03:30N 28°10' W 015°24'0 0.0
2018-Feb-20 03:00N 28°10' W 015°24'0 0.0
2018-Feb-20 02:30N 28°10' W 015°24'0 0.0
2018-Feb-20 02:00N 28°10' W 015°24'0 0.0
2018-Feb-20 01:30N 28°10' W 015°24'0 0.0
2018-Feb-20 01:00N 28°10' W 015°24'0 0.0
2018-Feb-20 00:29N 28°10' W 015°24'0 0.0
2018-Feb-19 23:59N 28°10' W 015°24'0 0.0
2018-Feb-19 23:30N 28°10' W 015°24'0 0.0
2018-Feb-19 22:59N 28°10' W 015°24'0 0.1
2018-Feb-19 22:30N 28°10' W 015°24'611.2
2018-Feb-19 22:01N 28°13' W 015°29'1121.1
2018-Feb-19 21:31N 28°17' W 015°40'1121.1
2018-Feb-19 21:00N 28°21' W 015°51'1 0.3
2018-Feb-19 17:28N 28°21' W 015°53'1020.7
2018-Feb-19 16:59N 28°18' W 015°42'1021.0
2018-Feb-19 16:30N 28°14' W 015°31'816.4
2018-Feb-19 16:00N 28°09' W 015°24'1 1.2
2018-Feb-19 15:30N 28°10' W 015°24'0 0.0
2018-Feb-19 15:00N 28°10' W 015°24'0 0.0
2018-Feb-19 14:30N 28°10' W 015°24'0 0.0
2018-Feb-19 14:00N 28°10' W 015°24'0 0.0
2018-Feb-19 13:30N 28°10' W 015°24'0 0.0
2018-Feb-19 13:00N 28°10' W 015°24'0 0.0
2018-Feb-19 12:29N 28°10' W 015°24'0 0.0
2018-Feb-19 12:00N 28°10' W 015°24'0 0.0
2018-Feb-19 11:30N 28°10' W 015°24'0 0.0
2018-Feb-19 11:00N 28°10' W 015°24'0 0.0
2018-Feb-19 10:30N 28°10' W 015°24'0 0.8
2018-Feb-19 10:00N 28°09' W 015°24'816.5
2018-Feb-19 09:30N 28°14' W 015°32'1121.1
2018-Feb-19 09:00N 28°18' W 015°43'1021.3
2018-Feb-19 08:30N 28°22' W 015°54'1121.1
2018-Feb-19 08:00N 28°26' W 016°05'917.7
2018-Feb-19 07:31N 28°28' W 016°15'0 0.3
2018-Feb-19 07:01N 28°28' W 016°15'0 0.0
2018-Feb-19 06:31N 28°28' W 016°15'0 0.0
2018-Feb-19 06:01N 28°28' W 016°15'0 0.0
2018-Feb-19 05:30N 28°28' W 016°15'0 0.0
2018-Feb-19 05:01N 28°28' W 016°15'0 0.0
2018-Feb-19 04:31N 28°28' W 016°15'0 0.0
2018-Feb-19 04:01N 28°28' W 016°15'0 0.0
2018-Feb-19 03:30N 28°28' W 016°15'0 0.0
2018-Feb-19 03:01N 28°28' W 016°15'0 0.0
2018-Feb-19 02:31N 28°28' W 016°15'0 0.0
2018-Feb-19 02:00N 28°28' W 016°15'0 0.0
2018-Feb-19 01:31N 28°28' W 016°15'0 0.0
2018-Feb-19 01:00N 28°28' W 016°15'0 0.0
2018-Feb-19 00:29N 28°28' W 016°15'0 0.0
2018-Feb-19 00:01N 28°28' W 016°15'0 0.0
2018-Feb-18 23:30N 28°28' W 016°15'0 0.0
2018-Feb-18 23:00N 28°28' W 016°15'0 0.0
2018-Feb-18 22:30N 28°28' W 016°15'1 1.2
2018-Feb-18 22:00N 28°29' W 016°14'1020.0
2018-Feb-18 21:30N 28°25' W 016°04'1621.3
2018-Feb-18 20:46N 28°19' W 015°47'621.1
2018-Feb-18 20:30N 28°17' W 015°41'1021.0
2018-Feb-18 20:01N 28°14' W 015°30'713.9
2018-Feb-18 19:30N 28°09' W 015°24'0 0.7
2018-Feb-18 19:00N 28°10' W 015°24'0 0.0
2018-Feb-18 18:30N 28°10' W 015°24'0 0.6
2018-Feb-18 18:00N 28°09' W 015°24'815.8
2018-Feb-18 17:30N 28°14' W 015°31'1121.3
2018-Feb-18 17:00N 28°18' W 015°43'1121.2
2018-Feb-18 16:30N 28°22' W 015°54'1121.5
2018-Feb-18 16:00N 28°26' W 016°05'917.4
2018-Feb-18 15:30N 28°28' W 016°15'0 0.2
2018-Feb-18 15:00N 28°28' W 016°15'0 0.0
2018-Feb-18 14:31N 28°28' W 016°15'0 0.0
2018-Feb-18 14:00N 28°28' W 016°15'0 0.0
2018-Feb-18 13:30N 28°28' W 016°15'0 0.0
2018-Feb-18 13:00N 28°28' W 016°15'0 0.0
2018-Feb-18 12:29N 28°28' W 016°15'0 0.0
2018-Feb-18 12:01N 28°28' W 016°15'0 0.0
2018-Feb-18 11:30N 28°28' W 016°15'0 0.0
2018-Feb-18 11:00N 28°28' W 016°15'1 1.1
2018-Feb-18 10:31N 28°29' W 016°14'1019.7
2018-Feb-18 10:00N 28°26' W 016°04'1821.3
2018-Feb-18 09:11N 28°19' W 015°45'421.2
2018-Feb-18 09:00N 28°17' W 015°41'1121.1
2018-Feb-18 08:30N 28°14' W 015°30'714.2
2018-Feb-18 08:00N 28°09' W 015°24'0 0.8
2018-Feb-18 07:30N 28°10' W 015°24'0 0.0
2018-Feb-18 07:01N 28°10' W 015°24'0 0.0
2018-Feb-18 06:29N 28°10' W 015°24'0 0.0
2018-Feb-18 06:00N 28°10' W 015°24'0 0.0
2018-Feb-18 05:30N 28°10' W 015°24'0 0.0
2018-Feb-18 05:00N 28°10' W 015°24'0 0.0
2018-Feb-18 04:30N 28°10' W 015°24'0 0.0
2018-Feb-18 04:00N 28°10' W 015°24'0 0.0
2018-Feb-18 03:30N 28°10' W 015°24'0 0.0
2018-Feb-18 03:00N 28°10' W 015°24'0 0.0
2018-Feb-18 02:30N 28°10' W 015°24'0 0.0
2018-Feb-18 02:00N 28°10' W 015°24'0 0.0
2018-Feb-18 01:30N 28°10' W 015°24'0 0.0
2018-Feb-18 01:00N 28°10' W 015°24'0 0.0
2018-Feb-18 00:30N 28°10' W 015°24'0 0.0
2018-Feb-18 00:00N 28°10' W 015°24'0 0.0
2018-Feb-17 23:31N 28°10' W 015°24'0 0.0
2018-Feb-17 23:00N 28°10' W 015°24'0 0.0
2018-Feb-17 22:31N 28°10' W 015°24'0 0.0
2018-Feb-17 22:01N 28°10' W 015°24'0 0.0
2018-Feb-17 21:30N 28°10' W 015°24'0 0.0
2018-Feb-17 20:59N 28°10' W 015°24'0 0.0
2018-Feb-17 20:31N 28°10' W 015°24'0 0.0
2018-Feb-17 20:01N 28°10' W 015°24'0 0.0
2018-Feb-17 19:31N 28°10' W 015°24'0 0.0
2018-Feb-17 19:01N 28°10' W 015°24'0 0.0
2018-Feb-17 18:30N 28°10' W 015°24'0 0.0
2018-Feb-17 18:01N 28°10' W 015°24'0 0.0
2018-Feb-17 17:31N 28°10' W 015°24'0 0.0
2018-Feb-17 17:00N 28°10' W 015°24'0 0.0
2018-Feb-17 16:30N 28°10' W 015°24'611.2
2018-Feb-17 16:00N 28°11' W 015°18'1121.4
2018-Feb-17 15:30N 28°17' W 015°07'1121.2
2018-Feb-17 15:00N 28°21' W 014°57'1121.5
2018-Feb-17 14:30N 28°26' W 014°46'6621.3
2018-Feb-17 11:23N 28°54' W 013°37'616.8
2018-Feb-17 11:01N 28°58' W 013°32'0 0.0
2018-Feb-17 10:30N 28°58' W 013°32'0 0.0
2018-Feb-17 10:00N 28°58' W 013°32'0 0.0
2018-Feb-17 09:30N 28°58' W 013°32'0 0.0
2018-Feb-17 09:01N 28°58' W 013°32'0 0.0
2018-Feb-17 08:31N 28°58' W 013°32'0 0.0
2018-Feb-17 07:59N 28°58' W 013°32'0 0.0
2018-Feb-17 07:30N 28°58' W 013°32'0 0.0
2018-Feb-17 07:00N 28°58' W 013°32'0 0.0
2018-Feb-17 06:31N 28°58' W 013°32'3 5.8
2018-Feb-17 06:00N 28°56' W 013°34'1417.7
2018-Feb-17 05:12N 28°49' W 013°48'317.8
2018-Feb-17 05:00N 28°48' W 013°52'1218.1
2018-Feb-17 04:21N 28°44' W 014°05'5417.8
2018-Feb-17 01:19N 28°20' W 014°60'618.0
2018-Feb-17 00:59N 28°18' W 015°06'817.7
2018-Feb-17 00:30N 28°14' W 015°14'918.5
2018-Feb-17 00:00N 28°09' W 015°23'1 1.6
2018-Feb-16 23:31N 28°10' W 015°24'0 0.0
2018-Feb-16 23:00N 28°10' W 015°24'0 0.0
2018-Feb-16 22:31N 28°10' W 015°24'0 0.0
2018-Feb-16 21:59N 28°10' W 015°24'0 0.0
2018-Feb-16 21:30N 28°10' W 015°24'0 0.0
2018-Feb-16 21:00N 28°10' W 015°24'0 0.0
2018-Feb-16 20:30N 28°10' W 015°24'0 0.0
2018-Feb-16 20:00N 28°10' W 015°24'0 0.0
2018-Feb-16 19:30N 28°10' W 015°24'0 0.9
2018-Feb-16 19:01N 28°09' W 015°24'916.7
2018-Feb-16 18:30N 28°15' W 015°32'1121.3
2018-Feb-16 18:00N 28°18' W 015°43'1121.0
2018-Feb-16 17:30N 28°22' W 015°54'1021.4
2018-Feb-16 17:00N 28°26' W 016°05'917.3
2018-Feb-16 16:30N 28°28' W 016°15'0 0.0
2018-Feb-16 16:00N 28°28' W 016°15'0 0.0
2018-Feb-16 15:30N 28°28' W 016°15'0 0.0
2018-Feb-16 15:00N 28°28' W 016°15'0 0.0
2018-Feb-16 14:30N 28°28' W 016°15'0 0.0
2018-Feb-16 14:00N 28°28' W 016°15'0 0.0
2018-Feb-16 13:29N 28°28' W 016°15'0 0.0
2018-Feb-16 13:00N 28°28' W 016°15'0 0.0
2018-Feb-16 12:30N 28°28' W 016°15'0 0.0
2018-Feb-16 12:00N 28°28' W 016°15'0 0.0
2018-Feb-16 11:30N 28°28' W 016°15'0 0.0
2018-Feb-16 11:00N 28°28' W 016°15'0 0.0
2018-Feb-16 10:30N 28°28' W 016°15'0 0.0
2018-Feb-16 10:00N 28°28' W 016°15'712.5
2018-Feb-16 09:29N 28°27' W 016°07'1121.8
2018-Feb-16 09:00N 28°23' W 015°56'1121.5
2018-Feb-16 08:30N 28°19' W 015°45'1121.3
2018-Feb-16 08:00N 28°15' W 015°33'1020.7
2018-Feb-16 07:30N 28°11' W 015°23'2 3.2
2018-Feb-16 07:00N 28°10' W 015°24'0 0.0
2018-Feb-16 06:31N 28°10' W 015°24'0 0.0
2018-Feb-16 06:00N 28°10' W 015°24'0 0.0
2018-Feb-16 05:30N 28°10' W 015°24'0 0.0
2018-Feb-16 05:00N 28°10' W 015°24'0 0.0
2018-Feb-16 04:30N 28°10' W 015°24'0 0.0
2018-Feb-16 03:59N 28°10' W 015°24'0 0.0
2018-Feb-16 03:30N 28°10' W 015°24'0 0.0
2018-Feb-16 03:00N 28°10' W 015°24'0 0.0
2018-Feb-16 02:30N 28°10' W 015°24'0 0.0
2018-Feb-16 02:00N 28°10' W 015°24'0 0.0
2018-Feb-16 01:30N 28°10' W 015°24'0 0.0
2018-Feb-16 01:00N 28°10' W 015°24'0 0.0
2018-Feb-16 00:30N 28°10' W 015°24'0 0.0
2018-Feb-16 00:00N 28°10' W 015°24'0 0.0
2018-Feb-15 23:30N 28°10' W 015°24'0 0.0
2018-Feb-15 23:00N 28°10' W 015°24'3 6.2
2018-Feb-15 22:30N 28°12' W 015°25'1121.5
2018-Feb-15 22:00N 28°16' W 015°37'2321.4
2018-Feb-15 20:55N 28°25' W 016°02'921.6
2018-Feb-15 20:30N 28°27' W 016°11'3 6.5
2018-Feb-15 20:00N 28°28' W 016°15'0 0.0
2018-Feb-15 19:30N 28°28' W 016°15'0 0.4
2018-Feb-15 19:00N 28°28' W 016°15'917.5
2018-Feb-15 18:30N 28°26' W 016°05'1222.0
2018-Feb-15 17:58N 28°22' W 015°52'1021.8
2018-Feb-15 17:30N 28°18' W 015°42'1121.5
2018-Feb-15 17:00N 28°14' W 015°31'815.1
2018-Feb-15 16:30N 28°09' W 015°24'0 0.8
2018-Feb-15 16:00N 28°10' W 015°24'0 0.0
2018-Feb-15 15:30N 28°10' W 015°24'0 0.0
2018-Feb-15 15:00N 28°10' W 015°24'0 0.0
2018-Feb-15 14:30N 28°10' W 015°24'4 8.3
2018-Feb-15 13:59N 28°11' W 015°19'1022.0
2018-Feb-15 13:30N 28°16' W 015°09'1121.9
2018-Feb-15 13:00N 28°21' W 014°58'1121.8
2018-Feb-15 12:30N 28°26' W 014°47'1122.0
2018-Feb-15 12:00N 28°31' W 014°36'1122.1
2018-Feb-15 11:30N 28°36' W 014°24'1821.8
2018-Feb-15 10:40N 28°44' W 014°06'421.7
2018-Feb-15 10:30N 28°45' W 014°02'2422.2
2018-Feb-15 09:26N 28°54' W 013°37'613.8
2018-Feb-15 09:00N 28°58' W 013°32'0 0.0
2018-Feb-15 08:30N 28°58' W 013°32'0 0.0
2018-Feb-15 08:00N 28°58' W 013°32'0 0.0
2018-Feb-15 07:30N 28°58' W 013°32'0 0.0
2018-Feb-15 07:00N 28°58' W 013°32'0 0.0
2018-Feb-15 06:30N 28°58' W 013°32'3 6.7
2018-Feb-15 06:00N 28°56' W 013°34'2317.3
2018-Feb-15 04:40N 28°47' W 013°59'317.6
2018-Feb-15 04:28N 28°46' W 014°02'1817.5
2018-Feb-15 03:26N 28°38' W 014°21'2117.5
2018-Feb-15 02:16N 28°28' W 014°42'517.7
2018-Feb-15 02:00N 28°26' W 014°46'917.8
2018-Feb-15 01:31N 28°22' W 014°55'917.8
2018-Feb-15 01:00N 28°18' W 015°04'917.8
2018-Feb-15 00:31N 28°14' W 015°13'918.2
2018-Feb-15 00:01N 28°10' W 015°22'2 3.2
2018-Feb-14 23:30N 28°10' W 015°24'0 0.0
2018-Feb-14 23:00N 28°10' W 015°24'0 0.0
2018-Feb-14 22:30N 28°10' W 015°24'0 0.0
2018-Feb-14 21:59N 28°10' W 015°24'0 0.0
2018-Feb-14 21:27N 28°10' W 015°24'0 0.0
2018-Feb-14 21:00N 28°10' W 015°24'0 0.0
2018-Feb-14 20:30N 28°10' W 015°24'0 0.0
2018-Feb-14 20:00N 28°10' W 015°24'0 0.0
2018-Feb-14 19:30N 28°10' W 015°24'0 0.0
2018-Feb-14 19:00N 28°10' W 015°24'1 1.2
2018-Feb-14 18:30N 28°09' W 015°24'918.5
2018-Feb-14 18:01N 28°15' W 015°32'1121.3
2018-Feb-14 17:30N 28°18' W 015°44'1821.2
2018-Feb-14 16:38N 28°25' W 016°03'321.3
2018-Feb-14 16:30N 28°26' W 016°06'815.5
2018-Feb-14 16:00N 28°28' W 016°15'0 0.0
2018-Feb-14 15:30N 28°28' W 016°15'0 0.0
2018-Feb-14 15:00N 28°28' W 016°15'0 0.0
2018-Feb-14 14:30N 28°28' W 016°15'0 0.0
2018-Feb-14 14:00N 28°28' W 016°15'0 0.0
2018-Feb-14 13:30N 28°28' W 016°15'0 0.0
2018-Feb-14 13:00N 28°28' W 016°15'0 0.0
2018-Feb-14 12:30N 28°28' W 016°15'0 0.0
2018-Feb-14 11:56N 28°28' W 016°15'0 0.0
2018-Feb-14 11:30N 28°28' W 016°15'0 0.0
2018-Feb-14 10:59N 28°28' W 016°15'0 0.0
2018-Feb-14 10:30N 28°28' W 016°15'0 0.0
2018-Feb-14 10:00N 28°28' W 016°15'5 9.3
2018-Feb-14 09:30N 28°27' W 016°10'1122.0
2018-Feb-14 09:00N 28°23' W 015°58'1121.6
2018-Feb-14 08:29N 28°20' W 015°46'1021.4
2018-Feb-14 08:00N 28°16' W 015°35'1121.3
2018-Feb-14 07:30N 28°12' W 015°24'2 4.8
2018-Feb-14 07:00N 28°10' W 015°24'0 0.0
2018-Feb-14 06:30N 28°10' W 015°24'0 0.0
2018-Feb-14 05:59N 28°10' W 015°24'0 0.0
2018-Feb-14 05:30N 28°10' W 015°24'0 0.0
2018-Feb-14 05:00N 28°10' W 015°24'0 0.0
2018-Feb-14 04:30N 28°10' W 015°24'0 0.0
2018-Feb-14 04:00N 28°10' W 015°24'0 0.0
2018-Feb-14 03:30N 28°10' W 015°24'0 0.0
2018-Feb-14 03:00N 28°10' W 015°24'0 0.0
2018-Feb-14 02:30N 28°10' W 015°24'0 0.0
2018-Feb-14 01:58N 28°10' W 015°24'0 0.0
2018-Feb-14 01:30N 28°10' W 015°24'0 0.0
2018-Feb-14 01:00N 28°10' W 015°24'0 0.0
2018-Feb-14 00:30N 28°10' W 015°24'0 0.0
2018-Feb-13 23:59N 28°10' W 015°24'0 0.0
2018-Feb-13 23:30N 28°10' W 015°24'0 0.0
2018-Feb-13 23:00N 28°10' W 015°24'0 0.0
2018-Feb-13 22:30N 28°10' W 015°24'4 7.0
2018-Feb-13 22:00N 28°13' W 015°26'1222.1
2018-Feb-13 21:27N 28°17' W 015°39'1221.7
2018-Feb-13 20:55N 28°21' W 015°51'921.7
2018-Feb-13 20:29N 28°24' W 016°01'1121.7
2018-Feb-13 20:00N 28°28' W 016°12'2 4.1
2018-Feb-13 19:30N 28°28' W 016°15'0 0.0
2018-Feb-13 19:00N 28°28' W 016°15'0 0.0
2018-Feb-13 18:30N 28°28' W 016°15'815.2
2018-Feb-13 18:00N 28°26' W 016°06'1221.9
2018-Feb-13 17:27N 28°22' W 015°53'1021.5
2018-Feb-13 17:00N 28°19' W 015°43'1121.6
2018-Feb-13 16:30N 28°15' W 015°32'918.5
2018-Feb-13 16:00N 28°09' W 015°24'1 1.1
2018-Feb-13 15:31N 28°10' W 015°24'0 0.0
2018-Feb-13 15:01N 28°10' W 015°24'0 0.0
2018-Feb-13 14:30N 28°10' W 015°24'0 0.0
2018-Feb-13 14:00N 28°10' W 015°24'0 0.0
2018-Feb-13 13:30N 28°10' W 015°24'0 0.0
2018-Feb-13 12:58N 28°10' W 015°24'0 0.0
2018-Feb-13 12:30N 28°10' W 015°24'0 0.0
2018-Feb-13 12:00N 28°10' W 015°24'0 0.0
2018-Feb-13 11:30N 28°10' W 015°24'0 0.0
2018-Feb-13 11:00N 28°10' W 015°24'0 0.0
2018-Feb-13 10:30N 28°10' W 015°24'1 1.0
2018-Feb-13 10:00N 28°09' W 015°24'917.8
2018-Feb-13 09:30N 28°15' W 015°32'1121.9
2018-Feb-13 09:00N 28°18' W 015°44'1121.7
2018-Feb-13 08:30N 28°22' W 015°56'1121.6
2018-Feb-13 08:01N 28°26' W 016°07'714.8
2018-Feb-13 07:30N 28°28' W 016°15'0 0.0
2018-Feb-13 07:00N 28°28' W 016°15'0 0.0
2018-Feb-13 06:30N 28°28' W 016°15'0 0.0
2018-Feb-13 06:00N 28°28' W 016°15'0 0.0
2018-Feb-13 05:30N 28°28' W 016°15'0 0.0
2018-Feb-13 05:00N 28°28' W 016°15'0 0.0
2018-Feb-13 04:30N 28°28' W 016°15'0 0.0
2018-Feb-13 04:00N 28°28' W 016°15'0 0.0
2018-Feb-13 03:30N 28°28' W 016°15'0 0.0
2018-Feb-13 03:00N 28°28' W 016°15'0 0.0
2018-Feb-13 02:30N 28°28' W 016°15'0 0.0
2018-Feb-13 02:00N 28°28' W 016°15'0 0.0
2018-Feb-13 01:30N 28°28' W 016°15'0 0.0
2018-Feb-13 01:00N 28°28' W 016°15'0 0.0
2018-Feb-13 00:30N 28°28' W 016°15'0 0.0
2018-Feb-13 00:00N 28°28' W 016°15'0 0.0
2018-Feb-12 23:30N 28°28' W 016°15'0 0.0
2018-Feb-12 23:00N 28°28' W 016°15'1 1.2
2018-Feb-12 22:30N 28°29' W 016°14'1019.7
2018-Feb-12 22:00N 28°25' W 016°04'1421.4
2018-Feb-12 21:21N 28°20' W 015°49'721.3
2018-Feb-12 21:00N 28°18' W 015°41'1121.2
2018-Feb-12 20:30N 28°14' W 015°30'714.0
2018-Feb-12 20:00N 28°09' W 015°24'0 0.6
2018-Feb-12 19:30N 28°10' W 015°24'0 0.0
2018-Feb-12 19:00N 28°10' W 015°24'0 0.0
2018-Feb-12 18:30N 28°10' W 015°24'0 0.0
2018-Feb-12 18:00N 28°10' W 015°24'0 0.0
2018-Feb-12 17:30N 28°10' W 015°24'0 0.0
2018-Feb-12 17:00N 28°10' W 015°24'1 1.1
2018-Feb-12 16:30N 28°09' W 015°24'917.2
2018-Feb-12 16:00N 28°15' W 015°31'1121.5
2018-Feb-12 15:30N 28°18' W 015°43'2021.4
2018-Feb-12 14:34N 28°25' W 016°04'221.7
2018-Feb-12 14:27N 28°26' W 016°07'715.9
2018-Feb-12 14:00N 28°28' W 016°15'0 0.0
2018-Feb-12 13:30N 28°28' W 016°15'0 0.0
2018-Feb-12 13:00N 28°28' W 016°15'0 0.0
2018-Feb-12 12:30N 28°28' W 016°15'0 0.0
2018-Feb-12 12:00N 28°28' W 016°15'0 0.0
2018-Feb-12 11:30N 28°28' W 016°15'0 0.0
2018-Feb-12 11:00N 28°28' W 016°15'0 0.0
2018-Feb-12 10:30N 28°28' W 016°15'0 0.0
2018-Feb-12 10:00N 28°28' W 016°15'713.9
2018-Feb-12 09:30N 28°27' W 016°07'1221.5
2018-Feb-12 08:56N 28°22' W 015°54'921.5
2018-Feb-12 08:30N 28°19' W 015°44'1121.3
2018-Feb-12 08:00N 28°16' W 015°33'1020.0
2018-Feb-12 07:30N 28°11' W 015°23'1 2.6
2018-Feb-12 07:00N 28°10' W 015°24'0 0.0
2018-Feb-12 06:30N 28°10' W 015°24'0 0.0
2018-Feb-12 06:00N 28°10' W 015°24'0 0.0
2018-Feb-12 05:30N 28°10' W 015°24'0 0.0
2018-Feb-12 05:00N 28°10' W 015°24'0 0.0
2018-Feb-12 04:30N 28°10' W 015°24'0 0.0
2018-Feb-12 04:00N 28°10' W 015°24'0 0.0
2018-Feb-12 03:29N 28°10' W 015°24'0 0.0
2018-Feb-12 03:00N 28°10' W 015°24'0 0.0
2018-Feb-12 02:30N 28°10' W 015°24'0 0.0
2018-Feb-12 02:00N 28°10' W 015°24'0 0.0
2018-Feb-12 01:30N 28°10' W 015°24'0 0.0
2018-Feb-12 01:00N 28°10' W 015°24'0 0.0
2018-Feb-12 00:30N 28°10' W 015°24'0 0.0
2018-Feb-12 00:00N 28°10' W 015°24'0 0.0
2018-Feb-11 23:30N 28°10' W 015°24'0 0.0
2018-Feb-11 23:00N 28°10' W 015°24'0 0.0
2018-Feb-11 22:30N 28°10' W 015°24'1 1.2
2018-Feb-11 22:00N 28°09' W 015°24'917.3
2018-Feb-11 21:30N 28°14' W 015°32'1121.3
2018-Feb-11 20:59N 28°18' W 015°43'1321.2
2018-Feb-11 20:23N 28°23' W 015°57'821.3
2018-Feb-11 20:00N 28°26' W 016°06'816.9
2018-Feb-11 19:30N 28°28' W 016°15'0 0.1
2018-Feb-11 19:00N 28°28' W 016°15'0 0.0
2018-Feb-11 18:31N 28°28' W 016°15'1 1.9
2018-Feb-11 18:00N 28°29' W 016°14'1020.1
2018-Feb-11 17:30N 28°25' W 016°03'1421.2
2018-Feb-11 16:51N 28°20' W 015°48'720.8
2018-Feb-11 16:30N 28°17' W 015°41'1020.9
2018-Feb-11 16:00N 28°14' W 015°30'713.8
2018-Feb-11 15:31N 28°09' W 015°24'0 0.9
2018-Feb-11 15:00N 28°10' W 015°24'0 0.0
2018-Feb-11 14:30N 28°10' W 015°24'0 0.0
2018-Feb-11 14:00N 28°10' W 015°24'0 0.0
2018-Feb-11 13:30N 28°10' W 015°24'0 0.0
2018-Feb-11 13:00N 28°10' W 015°24'0 0.0
2018-Feb-11 12:30N 28°10' W 015°24'0 0.0
2018-Feb-11 11:59N 28°10' W 015°24'0 0.0
2018-Feb-11 11:30N 28°10' W 015°24'0 0.0
2018-Feb-11 11:00N 28°10' W 015°24'0 0.0
2018-Feb-11 10:30N 28°10' W 015°24'0 0.0
2018-Feb-11 10:00N 28°10' W 015°24'0 0.0
2018-Feb-11 09:30N 28°10' W 015°24'0 0.0
2018-Feb-11 09:00N 28°10' W 015°24'0 0.0
2018-Feb-11 08:26N 28°10' W 015°24'0 0.0
2018-Feb-11 08:00N 28°10' W 015°24'0 0.0
2018-Feb-11 07:30N 28°10' W 015°24'0 0.0
2018-Feb-11 07:00N 28°10' W 015°24'0 0.0
2018-Feb-11 06:30N 28°10' W 015°24'0 0.0
2018-Feb-11 06:00N 28°10' W 015°24'0 0.0
2018-Feb-11 05:30N 28°10' W 015°24'0 0.0
2018-Feb-11 05:00N 28°10' W 015°24'0 0.0
2018-Feb-11 04:30N 28°10' W 015°24'0 0.0
2018-Feb-11 04:00N 28°10' W 015°24'0 0.0
2018-Feb-11 03:30N 28°10' W 015°24'0 0.0
2018-Feb-11 03:00N 28°10' W 015°24'0 0.0
2018-Feb-11 02:30N 28°10' W 015°24'0 0.0
2018-Feb-11 02:00N 28°10' W 015°24'0 0.0
2018-Feb-11 01:29N 28°10' W 015°24'0 0.0
2018-Feb-11 01:00N 28°10' W 015°24'0 0.0
2018-Feb-11 00:30N 28°10' W 015°24'0 0.0
2018-Feb-11 00:00N 28°10' W 015°24'0 0.0
2018-Feb-10 23:29N 28°10' W 015°24'0 0.0
2018-Feb-10 23:00N 28°10' W 015°24'0 0.7
2018-Feb-10 22:30N 28°09' W 015°24'815.1
2018-Feb-10 22:01N 28°14' W 015°31'3221.2
2018-Feb-10 20:29N 28°26' W 016°05'918.3
2018-Feb-10 20:00N 28°28' W 016°15'0 0.5
2018-Feb-10 19:30N 28°28' W 016°15'0 0.0
2018-Feb-10 19:00N 28°28' W 016°15'0 0.0
2018-Feb-10 18:30N 28°28' W 016°15'0 0.0
2018-Feb-10 18:00N 28°28' W 016°15'0 0.0
2018-Feb-10 17:30N 28°28' W 016°15'0 0.0
2018-Feb-10 17:00N 28°28' W 016°15'0 0.0
2018-Feb-10 16:30N 28°28' W 016°15'0 0.0
2018-Feb-10 16:00N 28°28' W 016°15'0 0.0
2018-Feb-10 15:30N 28°28' W 016°15'0 0.0
2018-Feb-10 15:00N 28°28' W 016°15'0 0.0
2018-Feb-10 14:30N 28°28' W 016°15'0 0.0
2018-Feb-10 14:00N 28°28' W 016°15'0 0.0
2018-Feb-10 13:30N 28°28' W 016°15'0 0.0
2018-Feb-10 13:00N 28°28' W 016°15'0 0.0
2018-Feb-10 12:30N 28°28' W 016°15'0 0.0
2018-Feb-10 12:00N 28°28' W 016°15'0 0.0
2018-Feb-10 11:30N 28°28' W 016°15'0 0.0
2018-Feb-10 11:00N 28°28' W 016°15'1 2.7
2018-Feb-10 10:30N 28°29' W 016°13'3621.0
2018-Feb-10 08:48N 28°16' W 015°35'620.8
2018-Feb-10 08:31N 28°14' W 015°29'  

Dump ship's entire track history